createdAt,value
2022-10-10T00:00:23.875Z,53.80
2022-10-10T00:04:46.476Z,55.17
2022-10-10T00:08:48.539Z,54.40
2022-10-10T00:12:50.818Z,52.75
2022-10-10T00:16:52.686Z,58.35
2022-10-10T00:20:54.505Z,58.45
2022-10-10T00:24:56.133Z,60.13
2022-10-10T00:28:58.355Z,66.97
2022-10-10T00:33:00.607Z,69.90
2022-10-10T00:37:03.514Z,65.05
2022-10-10T00:41:05.802Z,76.93
2022-10-10T00:45:30.942Z,81.13
2022-10-10T00:49:36.531Z,72.20
2022-10-10T00:53:45.034Z,75.97
2022-10-10T01:01:48.875Z,62.88
2022-10-10T01:05:51.313Z,71.82
2022-10-10T01:09:56.569Z,69.72
2022-10-10T01:14:13.350Z,64.22
2022-10-10T01:18:28.466Z,61.35
2022-10-10T01:22:40.389Z,64.50
2022-10-10T01:27:08.348Z,65.85
2022-10-10T01:31:13.896Z,63.90
2022-10-10T01:35:39.117Z,53.30
2022-10-10T01:39:56.786Z,63.90
2022-10-10T01:43:59.545Z,56.80
2022-10-10T01:48:07.113Z,56.33
2022-10-10T01:52:43.965Z,57.28
2022-10-10T01:56:56.664Z,53.90
2022-10-10T02:01:08.109Z,50.35
2022-10-10T02:05:20.170Z,50.88
2022-10-10T02:09:32.104Z,51.45
2022-10-10T02:13:44.307Z,50.30
2022-10-10T02:17:48.143Z,51.70
2022-10-10T02:21:52.317Z,53.17
2022-10-10T02:25:56.733Z,50.33
2022-10-10T02:30:02.465Z,50.15
2022-10-10T02:34:11.811Z,56.15
2022-10-10T02:38:15.371Z,52.67
2022-10-10T02:42:20.712Z,52.15
2022-10-10T02:46:23.148Z,50.80
2022-10-10T02:50:26.630Z,52.05
2022-10-10T02:54:28.377Z,45.78
2022-10-10T02:58:30.601Z,45.42
2022-10-10T03:02:33.127Z,44.17
2022-10-10T03:06:35.199Z,44.70
2022-10-10T03:10:37.045Z,41.92
2022-10-10T03:14:39.144Z,42.15
2022-10-10T03:18:42.139Z,42.47
2022-10-10T03:29:40.097Z,42.05
2022-10-10T03:33:42.159Z,46.65
2022-10-10T03:37:43.822Z,39.78
2022-10-10T03:41:45.774Z,39.55
2022-10-10T03:45:50.035Z,37.33
2022-10-10T03:49:51.786Z,40.72
2022-10-10T03:53:54.514Z,39.90
2022-10-10T03:57:56.382Z,32.70
2022-10-10T04:01:58.575Z,35.05
2022-10-10T04:06:00.503Z,31.10
2022-10-10T04:10:03.125Z,34.33
2022-10-10T04:14:04.908Z,37.50
2022-10-10T04:18:07.695Z,33.03
2022-10-10T04:22:11.265Z,36.08
2022-10-10T04:26:13.167Z,37.75
2022-10-10T04:30:15.363Z,29.45
2022-10-10T04:34:17.321Z,33.38
2022-10-10T04:38:21.286Z,40.10
2022-10-10T04:42:23.417Z,30.80
2022-10-10T04:46:25.238Z,31.63
2022-10-10T04:50:27.329Z,30.60
2022-10-10T04:54:29.426Z,30.15
2022-10-10T04:58:31.585Z,32.75
2022-10-10T05:02:33.374Z,32.67
2022-10-10T05:06:35.511Z,31.38
2022-10-10T05:10:40.963Z,33.28
2022-10-10T05:14:47.298Z,28.27
2022-10-10T05:18:50.116Z,29.57
2022-10-10T05:22:52.202Z,37.75
2022-10-10T05:26:54.293Z,33.78
2022-10-10T05:30:56.216Z,27.75
2022-10-10T05:34:58.081Z,30.52
2022-10-10T05:39:01.209Z,30.38
2022-10-10T05:43:03.092Z,27.75
2022-10-10T05:47:04.842Z,32.72
2022-10-10T05:51:07.661Z,28.92
2022-10-10T05:55:09.531Z,25.80
2022-10-10T05:59:11.363Z,36.80
2022-10-10T06:03:16.814Z,36.25
2022-10-10T06:07:18.844Z,31.20
2022-10-10T06:11:22.788Z,28.98
2022-10-10T06:15:24.748Z,28.05
2022-10-10T06:19:26.451Z,28.38
2022-10-10T06:23:29.048Z,29.40
2022-10-10T06:27:30.768Z,30.88
2022-10-10T06:31:32.616Z,31.58
2022-10-10T06:35:38.179Z,29.60
2022-10-10T06:39:40.116Z,38.60
2022-10-10T06:43:41.946Z,35.50
2022-10-10T06:47:43.808Z,35.47
2022-10-10T06:51:45.465Z,34.90
2022-10-10T06:55:47.833Z,39.78
2022-10-10T06:59:49.504Z,35.42
2022-10-10T07:03:51.982Z,44.38
2022-10-10T07:07:53.934Z,42.75
2022-10-10T07:11:55.806Z,43.33
2022-10-10T07:15:57.674Z,44.58
2022-10-10T07:19:59.661Z,43.45
2022-10-10T07:24:01.493Z,38.70
2022-10-10T07:28:03.315Z,44.58
2022-10-10T07:32:05.284Z,44.15
2022-10-10T07:36:07.939Z,40.58
2022-10-10T07:40:09.792Z,41.42
2022-10-10T07:44:11.639Z,44.40
2022-10-10T07:48:13.381Z,39.63
2022-10-10T07:52:15.214Z,46.55
2022-10-10T07:56:16.933Z,45.20
2022-10-10T08:00:18.845Z,44.25
2022-10-10T08:04:21.642Z,43.85
2022-10-10T08:08:23.639Z,41.28
2022-10-10T08:12:25.496Z,41.22
2022-10-10T08:16:27.686Z,44.65
2022-10-10T08:20:29.392Z,44.63
2022-10-10T08:24:31.477Z,39.65
2022-10-10T08:28:34.444Z,38.67
2022-10-10T08:32:36.438Z,32.65
2022-10-10T08:36:38.734Z,31.60
2022-10-10T08:40:46.955Z,30.67
2022-10-10T08:44:55.461Z,28.10
2022-10-10T08:49:01.154Z,26.25
2022-10-10T08:53:43.803Z,24.13
2022-10-10T08:57:51.175Z,22.92
2022-10-10T09:02:17.959Z,22.20
2022-10-10T09:06:59.521Z,22.25
2022-10-10T09:11:33.725Z,20.83
2022-10-10T09:15:45.721Z,20.13
2022-10-10T09:20:03.232Z,17.80
2022-10-10T09:24:19.867Z,15.45
2022-10-10T09:28:44.166Z,11.10
2022-10-10T09:32:51.838Z,9.55
2022-10-10T09:36:58.495Z,10.57
2022-10-10T09:41:13.471Z,8.88
2022-10-10T09:45:26.476Z,7.63
2022-10-10T09:49:29.749Z,7.43
2022-10-10T09:53:31.573Z,7.32
2022-10-10T09:57:39.128Z,6.72
2022-10-10T10:01:40.989Z,6.07
2022-10-10T10:06:00.929Z,5.05
2022-10-10T10:10:17.263Z,6.03
2022-10-10T10:14:28.494Z,5.93
2022-10-10T10:18:31.210Z,5.40
2022-10-10T10:22:40.636Z,6.63
2022-10-10T10:26:47.579Z,5.68
2022-10-10T10:30:56.625Z,4.70
2022-10-10T10:39:53.948Z,4.72
2022-10-10T10:44:26.679Z,5.47
2022-10-10T10:48:39.188Z,5.07
2022-10-10T10:53:22.811Z,4.20
2022-10-10T10:57:51.605Z,4.78
2022-10-10T11:02:54.166Z,4.15
2022-10-10T11:11:21.748Z,3.10
2022-10-10T11:20:15.458Z,2.40
2022-10-10T11:24:32.536Z,2.83
2022-10-10T11:28:49.148Z,2.80
2022-10-10T11:33:09.979Z,3.10
2022-10-10T11:37:19.506Z,2.90
2022-10-10T11:41:31.704Z,3.38
2022-10-10T11:45:39.236Z,3.60
2022-10-10T11:49:55.664Z,2.95
2022-10-10T11:54:04.603Z,3.25
2022-10-10T11:58:06.530Z,2.80
2022-10-10T12:02:30.334Z,3.28
2022-10-10T12:06:47.914Z,3.25
2022-10-10T12:10:55.354Z,3.08
2022-10-10T12:15:02.107Z,2.92
2022-10-10T12:19:15.232Z,2.65
2022-10-10T12:23:31.382Z,3.20
2022-10-10T12:28:00.922Z,3.72
2022-10-10T12:42:48.576Z,2.83
2022-10-10T12:47:15.376Z,2.35
2022-10-10T12:51:21.311Z,2.65
2022-10-10T12:55:30.569Z,2.20
2022-10-10T12:59:36.461Z,2.40
2022-10-10T13:03:44.509Z,2.17
2022-10-10T13:07:48.771Z,2.20
2022-10-10T13:11:59.291Z,1.73
2022-10-10T13:16:13.589Z,1.90
2022-10-10T13:20:32.840Z,1.92
2022-10-10T13:24:35.370Z,1.75
2022-10-10T13:28:37.296Z,1.83
2022-10-10T13:32:39.110Z,1.52
2022-10-10T13:36:41.491Z,1.77
2022-10-10T13:40:44.705Z,1.45
2022-10-10T13:44:50.227Z,1.95
2022-10-10T13:48:52.043Z,2.70
2022-10-10T13:53:25.476Z,1.83
2022-10-10T13:57:27.813Z,1.80
2022-10-10T14:01:54.650Z,1.75
2022-10-10T14:05:56.960Z,2.28
2022-10-10T14:10:04.718Z,3.30
2022-10-10T14:14:32.364Z,1.80
2022-10-10T14:18:34.130Z,2.75
2022-10-10T14:22:35.810Z,2.03
2022-10-10T14:26:37.942Z,1.98
2022-10-10T14:30:39.964Z,3.00
2022-10-10T14:34:42.441Z,2.17
2022-10-10T14:39:13.142Z,2.10
2022-10-10T14:43:16.797Z,2.50
2022-10-10T14:47:23.937Z,2.85
2022-10-10T14:51:34.821Z,2.70
2022-10-10T14:55:37.579Z,2.70
2022-10-10T14:59:47.684Z,2.10
2022-10-10T15:03:51.828Z,2.55
2022-10-10T15:07:53.853Z,2.47
2022-10-10T15:11:55.659Z,3.15
2022-10-10T15:15:57.695Z,3.70
2022-10-10T15:19:59.429Z,3.00
2022-10-10T15:24:01.235Z,2.47
2022-10-10T15:28:03.583Z,3.03
2022-10-10T15:32:05.717Z,2.92
2022-10-10T15:36:10.429Z,3.00
2022-10-10T15:40:17.444Z,3.05
2022-10-10T15:44:19.261Z,3.00
2022-10-10T15:48:21.155Z,3.70
2022-10-10T15:52:23.297Z,3.65
2022-10-10T15:56:25.752Z,3.55
2022-10-10T16:00:27.631Z,3.38
2022-10-10T16:04:29.548Z,4.60
2022-10-10T16:08:31.276Z,4.88
2022-10-10T16:12:33.119Z,16.20
2022-10-10T16:16:35.014Z,10.63
2022-10-10T16:20:38.970Z,7.63
2022-10-10T16:24:40.800Z,7.78
2022-10-10T16:28:43.445Z,11.50
2022-10-10T16:32:45.164Z,8.38
2022-10-10T16:36:46.990Z,8.10
2022-10-10T16:40:48.860Z,6.95
2022-10-10T16:44:50.743Z,7.30
2022-10-10T16:48:52.760Z,6.72
2022-10-10T16:52:54.589Z,6.70
2022-10-10T16:56:56.302Z,8.30
2022-10-10T17:01:01.246Z,8.18
2022-10-10T17:05:06.287Z,8.93
2022-10-10T17:09:09.861Z,9.45
2022-10-10T17:13:11.608Z,8.98
2022-10-10T17:17:14.020Z,10.07
2022-10-10T17:21:18.468Z,10.90
2022-10-10T17:25:20.228Z,13.43
2022-10-10T17:29:23.678Z,12.55
2022-10-10T17:33:25.613Z,13.15
2022-10-10T17:37:27.314Z,11.90
2022-10-10T17:41:29.950Z,11.88
2022-10-10T17:45:33.920Z,12.25
2022-10-10T17:49:36.092Z,11.63
2022-10-10T17:53:38.362Z,10.93
2022-10-10T17:57:40.142Z,10.90
2022-10-10T18:01:42.026Z,11.93
2022-10-10T18:05:44.171Z,12.77
2022-10-10T18:09:46.432Z,11.52
2022-10-10T18:13:48.253Z,12.68
2022-10-10T18:17:49.978Z,12.55
2022-10-10T18:21:52.213Z,12.75
2022-10-10T18:26:05.989Z,13.57
2022-10-10T18:30:08.327Z,12.70
2022-10-10T18:34:11.579Z,13.60
2022-10-10T18:38:13.346Z,14.68
2022-10-10T18:42:15.118Z,14.63
2022-10-10T18:46:19.881Z,14.20
2022-10-10T18:50:21.585Z,16.45
2022-10-10T18:54:23.565Z,14.60
2022-10-10T18:58:25.319Z,16.27
2022-10-10T19:02:27.214Z,14.18
2022-10-10T19:06:29.118Z,15.65
2022-10-10T19:10:30.903Z,16.10
2022-10-10T19:14:32.744Z,14.93
2022-10-10T19:18:35.068Z,15.00
2022-10-10T19:22:36.784Z,14.43
2022-10-10T19:26:38.993Z,16.75
2022-10-10T19:30:43.775Z,15.45
2022-10-10T19:34:46.123Z,15.70
2022-10-10T19:38:48.023Z,16.95
2022-10-10T19:42:50.022Z,19.48
2022-10-10T19:46:53.382Z,33.90
2022-10-10T19:50:55.223Z,36.42
2022-10-10T19:54:56.960Z,28.25
2022-10-10T19:59:00.735Z,22.75
2022-10-10T20:03:02.393Z,20.70
2022-10-10T20:07:04.272Z,19.58
2022-10-10T20:11:06.323Z,18.60
2022-10-10T20:15:08.492Z,18.85
2022-10-10T20:19:10.209Z,18.20
2022-10-10T20:23:12.908Z,18.52
2022-10-10T20:27:14.757Z,18.65
2022-10-10T20:31:28.958Z,19.73
2022-10-10T20:35:33.217Z,19.35
2022-10-10T20:39:35.087Z,18.05
2022-10-10T20:43:38.285Z,18.33
2022-10-10T20:47:40.137Z,19.88
2022-10-10T20:51:42.375Z,17.42
2022-10-10T20:55:44.244Z,18.80
2022-10-10T20:59:46.025Z,17.40
2022-10-10T21:03:48.469Z,17.35
2022-10-10T21:07:50.398Z,17.48
2022-10-10T21:11:52.372Z,15.93
2022-10-10T21:15:54.313Z,16.38
2022-10-10T21:19:56.746Z,16.42
2022-10-10T21:23:58.771Z,15.90
2022-10-10T21:28:00.593Z,15.57
2022-10-10T21:32:02.390Z,15.30
2022-10-10T21:36:04.593Z,16.23
2022-10-10T21:40:07.073Z,16.23
2022-10-10T21:44:10.358Z,15.75
2022-10-10T21:48:12.853Z,15.00
2022-10-10T21:52:14.672Z,13.65
2022-10-10T21:56:17.490Z,14.80
2022-10-10T22:00:20.042Z,14.32
2022-10-10T22:04:25.466Z,14.80
2022-10-10T22:08:30.096Z,14.82
2022-10-10T22:12:32.039Z,15.20
2022-10-10T22:16:34.691Z,14.52
2022-10-10T22:20:37.335Z,15.27
2022-10-10T22:24:39.375Z,13.45
2022-10-10T22:28:41.312Z,12.75
2022-10-10T22:32:43.386Z,13.82
2022-10-10T22:36:45.187Z,14.10
2022-10-10T22:40:47.465Z,14.02
2022-10-10T22:44:49.272Z,14.15
2022-10-10T22:48:51.113Z,13.10
2022-10-10T22:52:52.763Z,13.00
2022-10-10T22:56:54.823Z,14.57
2022-10-10T23:00:56.649Z,12.18
2022-10-10T23:04:59.511Z,12.65
2022-10-10T23:09:01.404Z,13.32
2022-10-10T23:13:03.415Z,12.75
2022-10-10T23:17:05.589Z,12.07
2022-10-10T23:21:07.580Z,12.10
2022-10-10T23:25:09.290Z,11.98
2022-10-10T23:29:11.064Z,11.70
2022-10-10T23:33:13.979Z,12.80
2022-10-10T23:37:15.789Z,11.43
2022-10-10T23:41:17.519Z,11.88
2022-10-10T23:45:20.280Z,12.40
2022-10-10T23:49:21.919Z,11.77
2022-10-10T23:53:23.755Z,12.75
2022-10-10T23:57:25.547Z,11.02
